Time;durP1;ratioP1;P1;durP2;ratioP2;P2;SDS_P1;SDS_P2;PMS_P1;PMS_P2;Temp;Humidity;BMP_temperature;BMP_pressure;BME280_temperature;BME280_humidity;BME280_pressure;Samples;Min_cycle;Max_cycle;Signal;HPM_P1;HPM_P2
2023/04/11 00:00:18;;;;;;;7.60;2.13;;;7.60;99.90;;;;;;5040124;28;20048;-73
2023/04/11 00:02:45;;;;;;;18.75;4.97;;;7.60;99.90;;;;;;5040024;28;20041;-73
2023/04/11 00:05:11;;;;;;;18.58;5.25;;;7.70;99.90;;;;;;5056739;28;20028;-73
2023/04/11 00:07:37;;;;;;;10.13;3.65;;;7.60;99.90;;;;;;5056710;28;20481;-73
2023/04/11 00:10:03;;;;;;;7.97;1.50;;;7.60;99.90;;;;;;5073272;28;20086;-71
2023/04/11 00:12:29;;;;;;;5.50;1.23;;;7.60;99.90;;;;;;5073506;28;20056;-71
2023/04/11 00:14:54;;;;;;;6.35;1.30;;;7.60;99.90;;;;;;5073141;28;20389;-71
2023/04/11 00:17:20;;;;;;;5.60;1.13;;;7.60;99.90;;;;;;5073130;28;20036;-71
2023/04/11 00:19:47;;;;;;;6.82;1.00;;;7.50;99.90;;;;;;5073058;28;20048;-71
2023/04/11 00:22:16;;;;;;;6.25;1.10;;;7.50;99.90;;;;;;5040267;28;20433;-71
2023/04/11 00:24:42;;;;;;;4.78;0.95;;;7.50;99.90;;;;;;5038983;28;20041;-71
2023/04/11 00:27:08;;;;;;;5.82;1.90;;;7.50;99.90;;;;;;5072956;28;20036;-71
2023/04/11 00:29:35;;;;;;;6.75;1.23;;;7.40;99.90;;;;;;5056245;28;20032;-71
2023/04/11 00:32:01;;;;;;;9.18;1.20;;;7.40;99.90;;;;;;5072782;28;20036;-71
2023/04/11 00:34:27;;;;;;;4.82;1.35;;;7.30;99.90;;;;;;5056210;28;20194;-71
2023/04/11 00:36:53;;;;;;;4.45;1.23;;;7.20;99.90;;;;;;5057225;28;20137;-71
2023/04/11 00:39:20;;;;;;;5.80;1.17;;;7.30;99.90;;;;;;5072728;28;20404;-71
2023/04/11 00:41:46;;;;;;;8.15;1.48;;;7.20;99.90;;;;;;5072388;28;20040;-71
2023/04/11 00:44:12;;;;;;;9.30;1.35;;;7.20;99.90;;;;;;5072609;28;20040;-71
2023/04/11 00:46:41;;;;;;;6.03;1.40;;;7.20;99.90;;;;;;5072830;28;20033;-71
2023/04/11 00:49:07;;;;;;;7.82;1.70;;;7.20;99.90;;;;;;5055855;28;20032;-71
2023/04/11 00:51:34;;;;;;;10.00;1.90;;;7.20;99.90;;;;;;5055755;28;20044;-71
2023/04/11 00:54:00;;;;;;;7.10;1.45;;;7.20;99.90;;;;;;5056024;28;20040;-71
2023/04/11 00:56:27;;;;;;;9.00;1.83;;;7.20;99.90;;;;;;5039109;28;20492;-71
2023/04/11 00:58:53;;;;;;;7.75;1.40;;;7.20;99.90;;;;;;5055723;28;20055;-71
2023/04/11 01:01:22;;;;;;;7.30;1.50;;;7.10;99.90;;;;;;5055479;28;20040;-71
2023/04/11 01:03:48;;;;;;;6.50;1.30;;;7.10;99.90;;;;;;5072277;28;20037;-71
2023/04/11 01:06:16;;;;;;;7.55;1.52;;;7.00;99.90;;;;;;5055497;28;20044;-71
2023/04/11 01:08:43;;;;;;;9.55;1.77;;;7.10;99.90;;;;;;5072166;28;20047;-71
2023/04/11 01:11:11;;;;;;;9.68;1.73;;;7.10;99.90;;;;;;5072103;28;20046;-71
2023/04/11 01:13:40;;;;;;;7.55;1.60;;;7.00;99.90;;;;;;5072358;28;20037;-71
2023/04/11 01:16:06;;;;;;;12.68;3.28;;;7.00;99.90;;;;;;5055742;28;20101;-71
2023/04/11 01:18:32;;;;;;;16.83;3.92;;;7.00;99.90;;;;;;5072111;28;20059;-71
2023/04/11 01:20:59;;;;;;;18.83;5.20;;;7.00;99.90;;;;;;5055255;28;20049;-71
2023/04/11 01:23:25;;;;;;;17.60;5.40;;;7.10;99.90;;;;;;5071953;28;20086;-71
2023/04/11 01:25:51;;;;;;;26.40;7.60;;;7.10;99.90;;;;;;5071992;28;20496;-71
2023/04/11 01:28:20;;;;;;;21.05;5.53;;;7.10;99.90;;;;;;5071940;28;20048;-71
2023/04/11 01:30:46;;;;;;;26.10;7.13;;;7.10;99.90;;;;;;5071859;28;20049;-71
2023/04/11 01:33:13;;;;;;;18.20;4.55;;;7.10;99.90;;;;;;5071908;28;20047;-71
2023/04/11 01:35:39;;;;;;;15.00;3.10;;;7.10;99.90;;;;;;5055165;28;20043;-71
2023/04/11 01:38:05;;;;;;;18.60;3.38;;;7.10;99.90;;;;;;5055571;28;20036;-71
2023/04/11 01:40:34;;;;;;;8.50;3.63;;;7.10;99.90;;;;;;5055129;28;20033;-71
2023/04/11 01:43:03;;;;;;;15.95;2.65;;;7.10;99.90;;;;;;5038375;28;20090;-71
2023/04/11 01:45:30;;;;;;;11.20;2.45;;;7.00;99.90;;;;;;5038441;28;20032;-71
2023/04/11 01:47:56;;;;;;;13.48;2.60;;;7.00;99.90;;;;;;5055294;28;20119;-71
2023/04/11 01:50:22;;;;;;;14.95;3.13;;;7.00;99.90;;;;;;5054912;28;20603;-70
2023/04/11 01:52:49;;;;;;;15.48;4.55;;;7.00;99.90;;;;;;5055017;28;20165;-71
2023/04/11 01:55:15;;;;;;;15.70;5.20;;;6.90;99.90;;;;;;5071702;28;20411;-71
2023/04/11 01:57:41;;;;;;;16.10;4.70;;;7.00;99.90;;;;;;5054988;28;20119;-71
2023/04/11 02:00:10;;;;;;;16.88;5.00;;;7.00;99.90;;;;;;5055327;28;20127;-71
2023/04/11 02:02:36;;;;;;;21.33;5.40;;;7.10;99.90;;;;;;5071513;28;20037;-71
2023/04/11 02:05:02;;;;;;;17.13;5.05;;;7.20;99.90;;;;;;5071601;28;20048;-71
2023/04/11 02:07:28;;;;;;;18.05;5.82;;;7.20;99.90;;;;;;5071588;28;20515;-71
2023/04/11 02:09:55;;;;;;;20.17;5.93;;;7.20;99.90;;;;;;5071487;28;20045;-70
2023/04/11 02:12:20;;;;;;;17.58;5.93;;;7.20;99.90;;;;;;5055089;28;20144;-71
2023/04/11 02:14:46;;;;;;;20.05;5.93;;;7.20;99.90;;;;;;5071761;28;20060;-70
2023/04/11 02:17:12;;;;;;;13.73;3.92;;;7.20;99.90;;;;;;5071527;28;20427;-71
2023/04/11 02:19:40;;;;;;;11.38;2.83;;;7.30;99.90;;;;;;5055005;28;20070;-71
2023/04/11 02:22:08;;;;;;;15.57;3.78;;;7.30;99.90;;;;;;5054649;28;20044;-72
2023/04/11 02:24:33;;;;;;;11.90;2.63;;;7.30;99.90;;;;;;5054753;28;20033;-71
2023/04/11 02:27:00;;;;;;;5.15;1.20;;;7.30;99.90;;;;;;5054684;28;20090;-71
2023/04/11 02:29:27;;;;;;;8.23;1.38;;;7.30;99.90;;;;;;5054934;28;20040;-71
2023/04/11 02:31:52;;;;;;;7.00;0.93;;;7.30;99.90;;;;;;5054575;28;20072;-71
2023/04/11 02:34:18;;;;;;;4.43;1.20;;;7.30;99.90;;;;;;5071612;28;20083;-71
2023/04/11 02:36:44;;;;;;;3.60;0.90;;;7.30;99.90;;;;;;5072753;28;20497;-71
2023/04/11 02:39:13;;;;;;;3.40;0.80;;;7.30;99.90;;;;;;5054838;28;20094;-71
2023/04/11 02:41:42;;;;;;;5.13;0.90;;;7.30;99.90;;;;;;5054504;28;20045;-71
2023/04/11 02:44:09;;;;;;;3.70;1.02;;;7.30;99.90;;;;;;5054485;28;20039;-71
2023/04/11 02:46:35;;;;;;;3.03;0.60;;;7.20;99.90;;;;;;5071446;28;20044;-71
2023/04/11 02:49:01;;;;;;;4.53;0.85;;;7.20;99.90;;;;;;5057230;28;20032;-71
2023/04/11 02:51:27;;;;;;;1.67;0.70;;;7.20;99.90;;;;;;5074680;28;20501;-71
2023/04/11 02:53:53;;;;;;;4.20;0.77;;;7.30;99.90;;;;;;5058094;28;20076;-71
2023/04/11 02:56:18;;;;;;;2.45;0.70;;;7.30;99.90;;;;;;5058043;28;20044;-71
2023/04/11 02:58:45;;;;;;;5.53;1.60;;;7.30;99.90;;;;;;5074577;28;20139;-71
2023/04/11 03:01:10;;;;;;;5.50;1.02;;;7.30;99.90;;;;;;5057826;28;20504;-70
2023/04/11 03:03:37;;;;;;;4.18;0.85;;;7.30;99.90;;;;;;5057916;28;20036;-71
2023/04/11 03:06:05;;;;;;;6.35;0.98;;;7.40;99.90;;;;;;5074503;28;20048;-71
2023/04/11 03:08:31;;;;;;;5.53;0.80;;;7.40;99.90;;;;;;5058102;28;20049;-71
2023/04/11 03:10:57;;;;;;;3.83;0.93;;;7.40;99.90;;;;;;5057957;28;20485;-71
2023/04/11 03:13:22;;;;;;;3.83;0.70;;;7.40;99.90;;;;;;5074432;28;20044;-71
2023/04/11 03:15:48;;;;;;;5.40;0.90;;;7.40;99.90;;;;;;5074360;28;20072;-71
2023/04/11 03:18:14;;;;;;;4.05;0.65;;;7.40;99.90;;;;;;5074278;28;20091;-71
2023/04/11 03:20:39;;;;;;;6.80;0.95;;;7.40;99.90;;;;;;5074213;28;20038;-71
2023/04/11 03:23:05;;;;;;;5.95;0.80;;;7.40;99.90;;;;;;5074175;28;20044;-71
2023/04/11 03:25:30;;;;;;;8.15;1.30;;;7.40;99.90;;;;;;5074456;28;20047;-71
2023/04/11 03:27:56;;;;;;;4.72;1.17;;;7.40;99.90;;;;;;5057508;28;20504;-71
2023/04/11 03:30:21;;;;;;;6.18;1.00;;;7.50;99.90;;;;;;5057394;28;20036;-70
2023/04/11 03:32:47;;;;;;;7.13;1.42;;;7.40;99.90;;;;;;5074142;28;20082;-70
2023/04/11 03:35:13;;;;;;;5.75;1.50;;;7.50;99.90;;;;;;5057366;28;20067;-71
2023/04/11 03:37:39;;;;;;;7.75;1.90;;;7.50;99.90;;;;;;5073890;28;20386;-71
2023/04/11 03:40:07;;;;;;;7.28;1.50;;;7.50;99.90;;;;;;5073704;28;20174;-70
2023/04/11 03:42:34;;;;;;;10.43;1.50;;;7.50;99.90;;;;;;5057230;28;20036;-71
2023/04/11 03:45:00;;;;;;;10.40;1.80;;;7.60;99.90;;;;;;5057082;28;20404;-71
2023/04/11 03:47:26;;;;;;;9.82;1.73;;;7.60;99.90;;;;;;5074128;28;20040;-71
2023/04/11 03:49:51;;;;;;;8.35;1.52;;;7.60;99.90;;;;;;5073726;28;20408;-70
2023/04/11 03:52:17;;;;;;;7.00;1.77;;;7.70;99.90;;;;;;5057220;28;20048;-70
2023/04/11 03:54:43;;;;;;;12.60;2.28;;;7.70;99.90;;;;;;5073910;28;20564;-70
2023/04/11 03:57:09;;;;;;;14.35;2.45;;;7.80;99.90;;;;;;5056955;28;20447;-70
2023/04/11 03:59:35;;;;;;;17.15;2.20;;;7.80;99.90;;;;;;5056026;28;20036;-70
2023/04/11 04:02:00;;;;;;;10.05;1.85;;;7.80;99.90;;;;;;5073372;28;20412;-71
2023/04/11 04:04:26;;;;;;;7.55;1.52;;;7.80;99.90;;;;;;5073683;28;20078;-71
2023/04/11 04:06:55;;;;;;;11.73;1.73;;;7.90;99.90;;;;;;5056637;28;20047;-71
2023/04/11 04:09:22;;;;;;;8.85;1.88;;;7.90;99.90;;;;;;5073332;28;20032;-71
2023/04/11 04:11:48;;;;;;;13.90;1.67;;;7.90;99.90;;;;;;5056522;28;20047;-70
2023/04/11 04:14:13;;;;;;;13.57;2.00;;;7.90;99.90;;;;;;5056543;28;20044;-71
2023/04/11 04:16:39;;;;;;;12.23;2.20;;;7.90;99.90;;;;;;5073439;28;20147;-71
2023/04/11 04:19:05;;;;;;;9.45;2.13;;;7.90;99.90;;;;;;5073983;28;20053;-71
2023/04/11 04:21:31;;;;;;;11.13;1.98;;;7.90;99.90;;;;;;5074142;28;20033;-71
2023/04/11 04:24:02;;;;;;;13.23;2.70;;;7.90;99.90;;;;;;5056325;28;20036;-70
2023/04/11 04:26:28;;;;;;;10.27;2.10;;;8.00;99.90;;;;;;5073009;28;20158;-71
2023/04/11 04:28:56;;;;;;;9.95;2.05;;;8.00;99.90;;;;;;5073156;28;20051;-71
2023/04/11 04:31:24;;;;;;;15.93;2.53;;;8.00;99.90;;;;;;5056110;28;20107;-71
2023/04/11 04:33:50;;;;;;;12.88;2.85;;;8.00;99.90;;;;;;5072780;28;20086;-71
2023/04/11 04:36:16;;;;;;;12.48;2.80;;;8.00;99.90;;;;;;5056180;28;20119;-71
2023/04/11 04:38:44;;;;;;;11.70;2.50;;;8.00;99.90;;;;;;5072959;28;20141;-71
2023/04/11 04:41:16;;;;;;;12.45;2.33;;;8.00;99.90;;;;;;5072706;28;20040;-70
2023/04/11 04:43:41;;;;;;;13.13;1.95;;;8.00;99.90;;;;;;5055977;28;20037;-71
2023/04/11 04:46:07;;;;;;;11.70;2.45;;;8.00;99.90;;;;;;5072563;28;20040;-71
2023/04/11 04:48:33;;;;;;;13.18;2.17;;;8.00;99.90;;;;;;5055876;28;20036;-71
2023/04/11 04:50:58;;;;;;;8.25;2.30;;;8.00;99.90;;;;;;5072459;28;20036;-71
2023/04/11 04:53:24;;;;;;;10.88;2.30;;;8.00;99.90;;;;;;5056110;28;20120;-72
2023/04/11 04:55:50;;;;;;;11.43;2.22;;;8.00;99.90;;;;;;5072415;28;20408;-73
2023/04/11 04:58:15;;;;;;;9.52;2.05;;;8.00;99.90;;;;;;5055754;28;20094;-73
2023/04/11 05:00:41;;;;;;;10.10;2.03;;;7.90;99.90;;;;;;5073488;28;20044;-72
2023/04/11 05:03:07;;;;;;;10.07;2.25;;;7.90;99.90;;;;;;5072209;28;20047;-73
2023/04/11 05:05:33;;;;;;;12.45;1.90;;;7.90;99.90;;;;;;5055587;28;20066;-73
2023/04/11 05:07:58;;;;;;;12.00;2.28;;;7.90;99.90;;;;;;5072276;28;20123;-72
2023/04/11 05:10:24;;;;;;;11.48;2.50;;;8.00;99.90;;;;;;5071855;28;20045;-70
2023/04/11 05:12:52;;;;;;;15.70;2.83;;;8.00;99.90;;;;;;5072167;28;20047;-72
2023/04/11 05:15:20;;;;;;;12.77;2.10;;;7.90;99.90;;;;;;5055675;28;20123;-71
2023/04/11 05:17:45;;;;;;;13.27;2.45;;;7.90;99.90;;;;;;5072346;28;20044;-71
2023/04/11 05:20:12;;;;;;;8.50;1.98;;;7.90;99.90;;;;;;5072005;28;20489;-71
2023/04/11 05:22:38;;;;;;;13.15;2.58;;;7.90;99.90;;;;;;5055513;28;20049;-71
2023/04/11 05:25:04;;;;;;;8.13;1.90;;;7.90;99.90;;;;;;5055360;28;20505;-71
2023/04/11 05:27:30;;;;;;;9.18;2.25;;;7.90;99.90;;;;;;5055260;28;20050;-71
2023/04/11 05:29:55;;;;;;;12.68;2.40;;;7.90;99.90;;;;;;5072134;28;20131;-71
2023/04/11 05:32:21;;;;;;;10.93;2.10;;;8.00;99.90;;;;;;5055207;28;20409;-70
2023/04/11 05:34:52;;;;;;;11.48;2.08;;;7.90;99.90;;;;;;5071903;28;20076;-71
2023/04/11 05:37:18;;;;;;;12.48;2.72;;;8.00;99.90;;;;;;5055213;28;20071;-71
2023/04/11 05:39:44;;;;;;;10.90;1.80;;;7.90;99.90;;;;;;5055159;28;20048;-71
2023/04/11 05:42:10;;;;;;;10.80;1.60;;;7.90;99.90;;;;;;5038356;28;20409;-70
2023/04/11 05:44:35;;;;;;;13.82;2.10;;;7.90;99.90;;;;;;5055144;28;20090;-71
2023/04/11 05:47:01;;;;;;;8.75;1.85;;;7.90;99.90;;;;;;5071794;28;20043;-71
2023/04/11 05:49:26;;;;;;;15.30;2.25;;;7.90;99.90;;;;;;5055066;28;20041;-71
2023/04/11 05:51:52;;;;;;;10.43;1.95;;;7.90;99.90;;;;;;5071966;28;20037;-71
2023/04/11 05:54:36;;;;;;;11.30;1.80;;;7.90;99.90;;;;;;5054997;28;20577;-71
2023/04/11 05:57:02;;;;;;;13.02;1.85;;;8.00;99.90;;;;;;5055012;28;20441;-71
2023/04/11 05:59:30;;;;;;;11.95;2.00;;;8.00;99.90;;;;;;5054893;28;20072;-71
2023/04/11 06:01:57;;;;;;;11.95;1.95;;;7.90;99.90;;;;;;5071509;28;20048;-71
2023/04/11 06:04:22;;;;;;;8.25;1.70;;;8.00;99.90;;;;;;5071588;28;20562;-71
2023/04/11 06:06:48;;;;;;;11.82;2.22;;;8.00;99.90;;;;;;5071850;28;20040;-71
2023/04/11 06:09:13;;;;;;;12.52;2.40;;;8.00;99.90;;;;;;5055171;28;20420;-71
2023/04/11 06:11:39;;;;;;;13.73;1.85;;;8.00;99.90;;;;;;5071450;28;20047;-71
2023/04/11 06:14:05;;;;;;;12.43;1.70;;;8.00;99.90;;;;;;5071459;28;20044;-71
2023/04/11 06:16:32;;;;;;;10.48;1.98;;;8.00;99.90;;;;;;5071801;28;20093;-71
2023/04/11 06:18:58;;;;;;;12.85;1.77;;;8.10;99.90;;;;;;5071531;28;20052;-71
2023/04/11 06:21:23;;;;;;;9.60;1.70;;;8.10;99.90;;;;;;5071284;28;20037;-71
2023/04/11 06:23:49;;;;;;;13.23;1.77;;;8.10;99.90;;;;;;5057117;28;20047;-70
2023/04/11 06:26:14;;;;;;;11.10;1.90;;;8.10;99.90;;;;;;5075584;28;20044;-70
2023/04/11 06:28:40;;;;;;;8.20;1.80;;;8.20;99.90;;;;;;5075456;28;20489;-71
2023/04/11 06:31:08;;;;;;;11.38;1.90;;;8.20;99.90;;;;;;5058699;28;20040;-71
2023/04/11 06:33:33;;;;;;;14.02;2.33;;;8.20;99.90;;;;;;5058718;28;20496;-71
2023/04/11 06:35:59;;;;;;;13.10;2.05;;;8.30;99.90;;;;;;5075092;28;20095;-71
2023/04/11 06:38:24;;;;;;;14.38;1.95;;;8.30;99.90;;;;;;5075120;28;20079;-72
2023/04/11 06:40:51;;;;;;;12.88;1.70;;;8.30;99.90;;;;;;5074855;28;20116;-72
2023/04/11 06:43:16;;;;;;;11.05;2.20;;;8.30;99.90;;;;;;5074942;28;20044;-72
2023/04/11 06:45:42;;;;;;;10.27;2.00;;;8.40;99.90;;;;;;5074900;28;20082;-76
2023/04/11 06:48:07;;;;;;;9.50;1.88;;;8.40;99.90;;;;;;5074854;28;20047;-73
2023/04/11 06:50:37;;;;;;;14.05;2.05;;;8.40;99.90;;;;;;5074878;28;20032;-73
2023/04/11 06:53:03;;;;;;;14.15;2.38;;;8.50;99.90;;;;;;5074795;28;20080;-73
2023/04/11 06:55:28;;;;;;;13.90;2.45;;;8.50;99.90;;;;;;5058384;28;20079;-76
2023/04/11 06:57:54;;;;;;;13.93;2.47;;;8.50;99.90;;;;;;5058279;28;20501;-73
2023/04/11 07:00:20;;;;;;;13.32;2.50;;;8.50;99.90;;;;;;5076398;28;20574;-72
2023/04/11 07:02:45;;;;;;;12.88;2.50;;;8.50;99.90;;;;;;5074545;28;20047;-73
2023/04/11 07:05:11;;;;;;;9.57;1.85;;;8.50;99.90;;;;;;5074544;28;20037;-72
2023/04/11 07:07:37;;;;;;;13.25;2.00;;;8.50;99.90;;;;;;5074500;28;20124;-73
2023/04/11 07:10:03;;;;;;;11.80;2.08;;;8.60;99.90;;;;;;5074418;28;20036;-72
2023/04/11 07:12:29;;;;;;;10.93;2.28;;;8.70;99.90;;;;;;5057671;28;20123;-72
2023/04/11 07:14:55;;;;;;;13.77;2.53;;;8.70;99.90;;;;;;5074397;28;20170;-73
2023/04/11 07:17:20;;;;;;;12.35;2.05;;;8.70;99.90;;;;;;5057663;28;20044;-73
2023/04/11 07:19:46;;;;;;;12.77;1.90;;;8.70;99.90;;;;;;5074536;28;20075;-73
2023/04/11 07:22:11;;;;;;;14.27;2.28;;;8.70;99.90;;;;;;5074174;28;20067;-73
2023/04/11 07:24:37;;;;;;;17.02;2.58;;;8.70;99.90;;;;;;5074498;28;20055;-73
2023/04/11 07:27:02;;;;;;;13.90;2.00;;;8.80;99.90;;;;;;5074191;28;20074;-73
2023/04/11 07:29:28;;;;;;;13.98;2.33;;;8.70;99.90;;;;;;5074344;28;20040;-73
2023/04/11 07:31:54;;;;;;;14.55;2.35;;;8.70;99.90;;;;;;5074480;28;20043;-73
2023/04/11 07:34:20;;;;;;;13.68;1.85;;;8.70;99.90;;;;;;5073926;28;20044;-73
2023/04/11 07:36:46;;;;;;;8.38;2.10;;;8.70;99.90;;;;;;5073997;28;20094;-73
2023/04/11 07:39:13;;;;;;;14.60;2.40;;;8.70;99.90;;;;;;5057541;28;20044;-73
2023/04/11 07:41:39;;;;;;;15.23;2.30;;;8.70;99.90;;;;;;5073920;28;20203;-73
2023/04/11 07:44:06;;;;;;;12.55;2.15;;;8.70;99.90;;;;;;5057208;28;20163;-73
2023/04/11 07:46:32;;;;;;;17.77;2.13;;;8.70;99.90;;;;;;5073804;28;20036;-73
2023/04/11 07:48:58;;;;;;;8.52;1.60;;;8.70;99.90;;;;;;5057114;28;20451;-73
2023/04/11 07:51:25;;;;;;;12.07;1.92;;;8.80;99.90;;;;;;5073662;28;20040;-73
2023/04/11 07:53:50;;;;;;;14.85;2.38;;;8.80;99.90;;;;;;5073653;28;20082;-73
2023/04/11 07:56:16;;;;;;;10.80;1.73;;;8.80;99.90;;;;;;5073631;28;20072;-73
2023/04/11 07:58:42;;;;;;;12.57;2.10;;;8.90;99.90;;;;;;5073608;28;20040;-73
2023/04/11 08:01:19;;;;;;;17.73;3.10;;;8.90;99.90;;;;;;5057008;28;20064;-73
2023/04/11 08:03:44;;;;;;;10.98;1.88;;;9.00;99.90;;;;;;5073461;28;20047;-73
2023/04/11 08:06:10;;;;;;;12.27;2.22;;;9.10;99.90;;;;;;5073414;28;20032;-73
2023/04/11 08:08:35;;;;;;;14.05;2.03;;;9.20;99.90;;;;;;5073344;28;20493;-73
2023/04/11 08:11:01;;;;;;;12.45;2.47;;;9.20;99.90;;;;;;5056601;28;20051;-73
2023/04/11 08:13:27;;;;;;;18.30;2.30;;;9.20;99.90;;;;;;5056629;28;20041;-73
2023/04/11 08:15:52;;;;;;;13.05;2.42;;;9.30;99.90;;;;;;5073266;28;20068;-73
2023/04/11 08:18:20;;;;;;;14.07;1.98;;;9.30;99.90;;;;;;5073165;28;20036;-73
2023/04/11 08:20:47;;;;;;;13.32;2.15;;;9.30;99.90;;;;;;5056369;28;20040;-73
2023/04/11 08:23:14;;;;;;;13.13;1.85;;;9.30;99.90;;;;;;5056319;28;20129;-72
2023/04/11 08:25:40;;;;;;;14.85;1.98;;;9.40;99.90;;;;;;5073012;28;20135;-73
2023/04/11 08:28:08;;;;;;;14.85;2.92;;;9.50;99.90;;;;;;5056314;28;20041;-73
2023/04/11 08:30:34;;;;;;;12.88;2.08;;;9.60;99.90;;;;;;5056199;28;20039;-73
2023/04/11 08:33:00;;;;;;;9.85;2.00;;;9.70;99.90;;;;;;5056238;28;20037;-73
2023/04/11 08:35:26;;;;;;;16.10;2.35;;;9.80;99.90;;;;;;5056423;28;20032;-73
2023/04/11 08:37:52;;;;;;;13.25;2.08;;;10.10;99.90;;;;;;5072772;28;20459;-73
2023/04/11 08:40:17;;;;;;;9.93;1.95;;;10.20;99.90;;;;;;5072687;28;20041;-73
2023/04/11 08:42:44;;;;;;;10.95;1.65;;;10.30;99.90;;;;;;5072592;28;20051;-73
2023/04/11 08:45:10;;;;;;;13.43;2.00;;;10.40;99.90;;;;;;5072300;28;20599;-73
2023/04/11 08:47:36;;;;;;;10.25;1.98;;;10.40;99.90;;;;;;5055695;28;20508;-73
2023/04/11 08:50:03;;;;;;;10.25;2.30;;;10.40;99.90;;;;;;5055793;28;20048;-73
2023/04/11 08:52:29;;;;;;;12.55;2.33;;;10.50;99.90;;;;;;5055884;28;20052;-73
2023/04/11 08:54:55;;;;;;;15.65;2.60;;;10.70;99.90;;;;;;5072733;28;20056;-72
2023/04/11 08:57:25;;;;;;;10.20;1.80;;;10.80;99.90;;;;;;5055807;28;20404;-73
2023/04/11 08:59:52;;;;;;;11.40;1.60;;;10.70;99.90;;;;;;5055675;28;20412;-73
2023/04/11 09:02:18;;;;;;;9.52;1.48;;;10.50;99.90;;;;;;5055652;28;20079;-73
2023/04/11 09:04:44;;;;;;;10.38;1.52;;;10.60;99.90;;;;;;5055934;28;20068;-73
2023/04/11 09:07:10;;;;;;;9.73;1.88;;;10.60;99.90;;;;;;5055528;28;20037;-73
2023/04/11 09:09:38;;;;;;;8.25;1.20;;;10.60;99.90;;;;;;5055589;28;20044;-73
2023/04/11 09:12:04;;;;;;;8.35;1.52;;;10.50;99.90;;;;;;5055450;28;20058;-73
2023/04/11 09:14:30;;;;;;;9.85;1.38;;;10.20;99.90;;;;;;5055534;28;20500;-73
2023/04/11 09:16:57;;;;;;;9.00;1.75;;;10.00;99.90;;;;;;5039198;28;20398;-73
2023/04/11 09:19:24;;;;;;;8.90;1.80;;;9.90;99.90;;;;;;5055686;28;20057;-73
2023/04/11 09:21:50;;;;;;;9.95;1.52;;;10.10;99.90;;;;;;5071960;28;20054;-73
2023/04/11 09:24:16;;;;;;;10.57;1.70;;;10.30;99.90;;;;;;5072058;28;20028;-73
2023/04/11 09:26:41;;;;;;;9.70;1.65;;;10.40;99.90;;;;;;5072019;28;20040;-73
2023/04/11 09:29:07;;;;;;;11.15;2.17;;;10.60;99.90;;;;;;5071971;28;20039;-73
2023/04/11 09:31:42;;;;;;;11.18;1.67;;;10.80;99.90;;;;;;5071848;28;20119;-73
2023/04/11 09:34:08;;;;;;;9.85;1.70;;;10.90;99.90;;;;;;5071948;28;20123;-73
2023/04/11 09:36:34;;;;;;;10.43;1.92;;;10.90;99.90;;;;;;5072183;28;20041;-73
2023/04/11 09:39:13;;;;;;;10.15;1.77;;;11.00;99.90;;;;;;5071864;28;20110;-73
2023/04/11 09:41:40;;;;;;;7.97;1.60;;;10.80;99.90;;;;;;5071695;28;20048;-73
2023/04/11 09:44:05;;;;;;;9.77;1.58;;;10.60;99.90;;;;;;5072100;28;20040;-73
2023/04/11 09:46:31;;;;;;;5.20;1.15;;;10.20;99.90;;;;;;5072507;28;20511;-73
2023/04/11 09:49:00;;;;;;;6.60;1.33;;;9.70;99.90;;;;;;5055184;28;20485;-73
2023/04/11 09:51:26;;;;;;;5.78;1.48;;;9.40;99.90;;;;;;5054958;28;20465;-73
2023/04/11 09:53:51;;;;;;;14.52;1.60;;;9.20;99.90;;;;;;5055031;28;20044;-73
2023/04/11 09:56:17;;;;;;;10.85;2.10;;;9.10;99.90;;;;;;5071693;28;20040;-73
2023/04/11 09:58:43;;;;;;;12.07;2.40;;;9.10;99.90;;;;;;5057217;28;20131;-73
2023/04/11 10:01:09;;;;;;;11.32;1.80;;;9.20;99.90;;;;;;5075931;28;20040;-74
2023/04/11 10:03:37;;;;;;;10.18;1.80;;;9.40;99.90;;;;;;5058994;28;20040;-73
2023/04/11 10:06:21;;;;;;;11.32;2.22;;;9.70;99.90;;;;;;5058979;28;20393;-73
2023/04/11 10:08:49;;;;;;;14.18;2.13;;;10.00;99.90;;;;;;5058929;28;20449;-73
2023/04/11 10:11:19;;;;;;;12.88;2.05;;;10.10;99.90;;;;;;5075551;28;20086;-73
2023/04/11 10:13:45;;;;;;;10.52;1.65;;;10.20;99.90;;;;;;5058915;28;20036;-73
2023/04/11 10:16:14;;;;;;;7.85;1.50;;;10.30;99.90;;;;;;5042303;28;20039;-73
2023/04/11 10:19:00;;;;;;;11.57;2.00;;;10.50;99.90;;;;;;5075488;28;20040;-73
2023/04/11 10:21:35;;;;;;;9.05;1.80;;;10.70;99.90;;;;;;5044875;28;20136;-73
2023/04/11 10:24:12;;;;;;;8.30;1.30;;;10.70;99.90;;;;;;5075414;28;20037;-72
2023/04/11 10:26:49;;;;;;;7.93;1.60;;;10.60;99.90;;;;;;5075359;28;20043;-74
2023/04/11 10:29:27;;;;;;;9.80;1.52;;;10.40;99.90;;;;;;5058872;28;20041;-73
2023/04/11 10:32:15;;;;;;;11.20;1.75;;;10.20;99.90;;;;;;5075100;28;20059;-73
2023/04/11 10:34:52;;;;;;;10.07;1.63;;;10.50;99.90;;;;;;5075118;28;20076;-73
2023/04/11 10:37:33;;;;;;;14.40;2.05;;;10.90;99.90;;;;;;5075049;28;20085;-73
2023/04/11 10:40:11;;;;;;;11.57;1.98;;;11.40;99.90;;;;;;5058674;28;20048;-73
2023/04/11 10:42:45;;;;;;;12.85;2.10;;;11.80;99.90;;;;;;5074942;28;20574;-73
2023/04/11 10:45:28;;;;;;;11.68;2.30;;;12.00;99.90;;;;;;5058313;28;20051;-73
2023/04/11 10:48:00;;;;;;;10.25;1.77;;;12.10;99.90;;;;;;5075213;28;20033;-73
2023/04/11 10:50:26;;;;;;;10.30;1.42;;;12.00;99.90;;;;;;5058151;28;20072;-73
2023/04/11 10:52:53;;;;;;;9.85;2.00;;;12.10;99.90;;;;;;5075056;28;20052;-73
2023/04/11 10:55:19;;;;;;;10.10;1.55;;;12.30;99.90;;;;;;5074915;28;20051;-73
2023/04/11 10:58:07;;;;;;;10.95;2.15;;;12.50;99.90;;;;;;5074741;28;20041;-73
2023/04/11 11:00:51;;;;;;;10.02;1.90;;;12.60;99.90;;;;;;5074625;28;20055;-73
2023/04/11 11:03:24;;;;;;;7.63;1.35;;;12.30;99.90;;;;;;5074511;28;20382;-73
2023/04/11 11:05:58;;;;;;;9.52;1.40;;;11.70;99.90;;;;;;5074582;28;20492;-72
2023/04/11 11:08:29;;;;;;;5.22;1.35;;;11.20;99.90;;;;;;5073980;28;20040;-73
2023/04/11 11:11:00;;;;;;;10.07;1.85;;;11.00;99.90;;;;;;5074670;28;20119;-73
2023/04/11 11:13:44;;;;;;;9.70;1.70;;;10.90;99.90;;;;;;5057874;28;20058;-73
2023/04/11 11:16:15;;;;;;;12.10;2.00;;;11.10;99.90;;;;;;5057799;28;20131;-72
2023/04/11 11:18:44;;;;;;;12.75;1.80;;;11.40;99.90;;;;;;5075662;28;20093;-73
2023/04/11 11:21:10;;;;;;;5.97;1.40;;;11.80;99.90;;;;;;5074509;28;20148;-73
2023/04/11 11:23:35;;;;;;;11.13;1.60;;;11.80;99.90;;;;;;5074271;28;20551;-73
2023/04/11 11:26:01;;;;;;;8.25;1.55;;;11.60;99.90;;;;;;5074220;28;20105;-73
2023/04/11 11:28:27;;;;;;;9.52;1.80;;;11.40;99.90;;;;;;5074164;28;20040;-71
2023/04/11 11:30:56;;;;;;;6.07;1.30;;;11.20;99.90;;;;;;5074070;28;20029;-70
2023/04/11 11:33:25;;;;;;;11.07;1.75;;;11.00;99.90;;;;;;5057373;28;20040;-71
2023/04/11 11:35:58;;;;;;;9.57;1.52;;;11.20;99.90;;;;;;5057413;28;20528;-71
2023/04/11 11:38:26;;;;;;;11.02;1.90;;;11.60;99.90;;;;;;5057415;28;20125;-71
2023/04/11 11:40:53;;;;;;;10.32;2.65;;;11.60;99.90;;;;;;5057301;28;20044;-71
2023/04/11 11:43:18;;;;;;;10.63;2.03;;;11.40;99.90;;;;;;5073867;28;20128;-71
2023/04/11 11:45:45;;;;;;;11.32;2.00;;;11.10;99.90;;;;;;5073905;28;20063;-71
2023/04/11 11:48:22;;;;;;;12.10;2.30;;;10.90;99.90;;;;;;5057374;28;20032;-71
2023/04/11 11:50:55;;;;;;;8.82;1.63;;;10.70;99.90;;;;;;5057025;28;20075;-70
2023/04/11 11:53:21;;;;;;;14.43;2.58;;;10.50;99.90;;;;;;5057025;28;20045;-71
2023/04/11 11:55:47;;;;;;;12.02;2.70;;;10.40;99.90;;;;;;5057207;28;20040;-70
2023/04/11 11:58:12;;;;;;;12.13;2.60;;;10.40;99.90;;;;;;5057238;28;20097;-71
2023/04/11 12:00:39;;;;;;;9.00;1.85;;;10.60;99.90;;;;;;5056839;28;20492;-70
2023/04/11 12:03:08;;;;;;;11.13;1.77;;;11.00;99.90;;;;;;5073504;28;20049;-71
2023/04/11 12:05:34;;;;;;;10.05;2.15;;;11.30;99.90;;;;;;5041227;28;20524;-71
2023/04/11 12:08:03;;;;;;;10.32;2.03;;;11.70;99.90;;;;;;5056737;28;20072;-71
2023/04/11 12:10:44;;;;;;;11.43;2.20;;;12.20;99.90;;;;;;5073554;28;20059;-71
2023/04/11 12:13:30;;;;;;;11.55;2.20;;;12.70;99.90;;;;;;5056910;28;20048;-71
2023/04/11 12:15:59;;;;;;;10.43;1.85;;;13.20;99.90;;;;;;5056540;28;20071;-71
2023/04/11 12:18:26;;;;;;;9.00;1.70;;;13.40;99.90;;;;;;5056502;28;20052;-71
2023/04/11 12:20:51;;;;;;;10.27;2.20;;;13.30;99.40;;;;;;5072177;28;20045;-71
2023/04/11 12:23:18;;;;;;;10.23;2.17;;;13.20;99.30;;;;;;5056412;28;20137;-71
2023/04/11 12:25:44;;;;;;;9.10;1.92;;;12.90;98.40;;;;;;5056398;28;20044;-71
2023/04/11 12:28:10;;;;;;;11.25;2.00;;;12.60;98.80;;;;;;5056608;28;20040;-71
2023/04/11 12:30:36;;;;;;;11.93;1.92;;;12.30;98.90;;;;;;5056232;28;20036;-71
2023/04/11 12:33:02;;;;;;;12.30;1.90;;;12.20;99.40;;;;;;5056223;28;20119;-71
2023/04/11 12:35:28;;;;;;;14.13;2.38;;;12.10;99.90;;;;;;5056472;28;20500;-71
2023/04/11 12:37:54;;;;;;;8.52;1.85;;;12.10;99.60;;;;;;5056424;28;20386;-71
2023/04/11 12:40:20;;;;;;;11.40;2.15;;;12.00;99.70;;;;;;5055888;28;20047;-70
2023/04/11 12:42:46;;;;;;;15.00;2.65;;;11.90;99.10;;;;;;5055966;28;20063;-73
2023/04/11 12:45:13;;;;;;;10.13;2.15;;;11.90;99.20;;;;;;5056270;28;20039;-73
2023/04/11 12:47:39;;;;;;;9.93;2.33;;;12.20;99.50;;;;;;5055974;28;20443;-73